Morgenster — PHMY — position and weather

sailwx.info

Track history (hours):
 
Tides and Currents Weather Stations Pressure Air Temp Water Temp Dewpoint Dewpoint Depression Visibility Wind Speed Wind Dir Waves Ship Positions

Morgenster

Last reported at 2016-Jun-25 01:15 UTC. Time now 2016-Jun-25 03:36 UTC.
Position N 52°57' E 004°46'.

Length 38 m; draft 2.4 m.

Type: Sailing vessel. MMSI: 245136000.

Date/timePositionNaut miles runAvg speedWind from/ knotsBaromVisibWave heightAir tempDewpointWater temp
2016-Jun-25 01:15N 52°57' E 004°46'0 0.0
2016-Jun-24 16:30N 52°57' E 004°46'0 0.0
2016-Jun-24 15:33N 52°57' E 004°46'0 0.0
2016-Jun-24 14:30N 52°57' E 004°46'0 0.0
2016-Jun-24 10:15N 52°57' E 004°46'1 1.2
2016-Jun-24 09:32N 52°57' E 004°47'2 2.4
2016-Jun-24 08:33N 52°58' E 004°44'123 5.8
2016-Jun-23 11:33N 51°32' E 002°20'5 4.9
2016-Jun-23 10:28N 51°28' E 002°15'5 5.0
2016-Jun-23 09:33N 51°24' E 002°11'4 3.8
2016-Jun-23 08:33N 51°21' E 002°08'5 4.9
2016-Jun-23 07:29N 51°16' E 002°05'12 5.0
2016-Jun-23 05:04N 51°08' E 001°51'4 6.2
2016-Jun-23 04:30N 51°05' E 001°47'7 7.0
2016-Jun-23 03:34N 51°01' E 001°40'85 4.2
2016-Jun-22 07:30N 49°56' E 000°13'6 6.0
2016-Jun-22 06:34N 49°54' E 000°05'5 5.1
2016-Jun-22 05:34N 49°52' W 000°02'5 5.5
2016-Jun-22 04:33N 49°50' W 000°10'5 5.0
2016-Jun-22 03:33N 49°48' W 000°17'4 4.3
2016-Jun-22 02:30N 49°48' W 000°24'4 4.5
2016-Jun-22 01:30N 49°47' W 000°31'6 4.9
2016-Jun-22 00:17N 49°46' W 000°40'  
2016-Jun-18 20:33N 51°43' W 007°04'8 6.7
2016-Jun-18 19:20N 51°52' W 007°03'4 5.2
2016-Jun-18 18:33N 51°55' W 007°01'5 5.2
2016-Jun-18 17:34N 52°00' W 006°58'6 6.2
2016-Jun-18 16:33N 52°07' W 006°58'7 6.6
2016-Jun-18 15:33N 52°13' W 006°57'5 4.6
2016-Jun-18 14:33N 52°15' W 007°03'2 0.2
2016-Jun-18 02:22N 52°16' W 007°07'0 0.0
2016-Jun-17 22:16N 52°16' W 007°07'0 0.0
2016-Jun-17 21:28N 52°16' W 007°07'0 0.0
2016-Jun-17 14:28N 52°16' W 007°07'0 0.2
2016-Jun-17 12:33N 52°16' W 007°06'2 1.8
2016-Jun-17 11:33N 52°15' W 007°03'5 5.1
2016-Jun-17 10:31N 52°12' W 006°56'5 4.9
2016-Jun-17 09:33N 52°08' W 006°57'5 4.7
2016-Jun-17 08:33N 52°10' W 006°50'0 0.1
2016-Jun-17 07:28N 52°10' W 006°50'0 0.0
2016-Jun-17 06:31N 52°10' W 006°50'0 0.0
2016-Jun-17 03:22N 52°10' W 006°50'1 0.2
2016-Jun-16 20:31N 52°10' W 006°48'15 6.6
2016-Jun-16 18:19N 52°09' W 006°25'5 6.1
2016-Jun-16 17:32N 52°09' W 006°17'8 7.7
2016-Jun-16 16:32N 52°13' W 006°06'  
Track history (hours):
 
Tides and Currents Weather Stations Pressure Air Temp Water Temp Dewpoint Dewpoint Depression Visibility Wind Speed Wind Dir Waves Ship Positions

Morgenster

Last reported at 2016-Jun-25 01:15 UTC. Time now 2016-Jun-25 03:36 UTC.
Position N 52°57' E 004°46'.

Length 38 m; draft 2.4 m.

Type: Sailing vessel. MMSI: 245136000.

Date/timePositionNaut miles runAvg speedWind from/ knotsBaromVisibWave heightAir tempDewpointWater temp
2016-Jun-25 01:15N 52°57' E 004°46'0 0.0
2016-Jun-24 16:30N 52°57' E 004°46'0 0.0
2016-Jun-24 15:33N 52°57' E 004°46'0 0.0
2016-Jun-24 14:30N 52°57' E 004°46'0 0.0
2016-Jun-24 10:15N 52°57' E 004°46'1 1.2
2016-Jun-24 09:32N 52°57' E 004°47'2 2.4
2016-Jun-24 08:33N 52°58' E 004°44'123 5.8
2016-Jun-23 11:33N 51°32' E 002°20'5 4.9
2016-Jun-23 10:28N 51°28' E 002°15'5 5.0
2016-Jun-23 09:33N 51°24' E 002°11'4 3.8
2016-Jun-23 08:33N 51°21' E 002°08'5 4.9
2016-Jun-23 07:29N 51°16' E 002°05'12 5.0
2016-Jun-23 05:04N 51°08' E 001°51'4 6.2
2016-Jun-23 04:30N 51°05' E 001°47'7 7.0
2016-Jun-23 03:34N 51°01' E 001°40'85 4.2
2016-Jun-22 07:30N 49°56' E 000°13'6 6.0
2016-Jun-22 06:34N 49°54' E 000°05'5 5.1
2016-Jun-22 05:34N 49°52' W 000°02'5 5.5
2016-Jun-22 04:33N 49°50' W 000°10'5 5.0
2016-Jun-22 03:33N 49°48' W 000°17'4 4.3
2016-Jun-22 02:30N 49°48' W 000°24'4 4.5
2016-Jun-22 01:30N 49°47' W 000°31'6 4.9
2016-Jun-22 00:17N 49°46' W 000°40'  
2016-Jun-18 20:33N 51°43' W 007°04'8 6.7
2016-Jun-18 19:20N 51°52' W 007°03'4 5.2
2016-Jun-18 18:33N 51°55' W 007°01'5 5.2
2016-Jun-18 17:34N 52°00' W 006°58'6 6.2
2016-Jun-18 16:33N 52°07' W 006°58'7 6.6
2016-Jun-18 15:33N 52°13' W 006°57'5 4.6
2016-Jun-18 14:33N 52°15' W 007°03'2 0.2
2016-Jun-18 02:22N 52°16' W 007°07'0 0.0
2016-Jun-17 22:16N 52°16' W 007°07'0 0.0
2016-Jun-17 21:28N 52°16' W 007°07'0 0.0
2016-Jun-17 14:28N 52°16' W 007°07'0 0.2
2016-Jun-17 12:33N 52°16' W 007°06'2 1.8
2016-Jun-17 11:33N 52°15' W 007°03'5 5.1
2016-Jun-17 10:31N 52°12' W 006°56'5 4.9
2016-Jun-17 09:33N 52°08' W 006°57'5 4.7
2016-Jun-17 08:33N 52°10' W 006°50'0 0.1
2016-Jun-17 07:28N 52°10' W 006°50'0 0.0
2016-Jun-17 06:31N 52°10' W 006°50'0 0.0
2016-Jun-17 03:22N 52°10' W 006°50'1 0.2
2016-Jun-16 20:31N 52°10' W 006°48'15 6.6
2016-Jun-16 18:19N 52°09' W 006°25'5 6.1
2016-Jun-16 17:32N 52°09' W 006°17'8 7.7
2016-Jun-16 16:32N 52°13' W 006°06'  

Dump ship's entire track history